sensor_id;sensor_type;location;lat;lon;timestamp;pressure;altitude;pressure_sealevel;temperature;humidity
2000;BME280;1001;48.87406500;9.59633600;2023-04-10T00:01:07;95633.69;;;5.75;80.50
2000;BME280;1001;48.87406500;9.59633600;2023-04-10T00:03:33;95642.09;;;5.77;80.67
2000;BME280;1001;48.87406500;9.59633600;2023-04-10T00:06:00;95638.59;;;5.84;80.05
2000;BME280;1001;48.87406500;9.59633600;2023-04-10T00:08:27;95642.25;;;5.75;81.14
2000;BME280;1001;48.87406500;9.59633600;2023-04-10T00:10:54;95636.03;;;5.70;80.50
2000;BME280;1001;48.87406500;9.59633600;2023-04-10T00:13:21;95637.06;;;5.75;79.90
2000;BME280;1001;48.87406500;9.59633600;2023-04-10T00:15:48;95639.25;;;5.72;80.95
2000;BME280;1001;48.87406500;9.59633600;2023-04-10T00:18:15;95633.25;;;5.71;80.34
2000;BME280;1001;48.87406500;9.59633600;2023-04-10T00:20:41;95630.03;;;5.69;80.54
2000;BME280;1001;48.87406500;9.59633600;2023-04-10T00:23:08;95625.47;;;5.71;80.02
2000;BME280;1001;48.87406500;9.59633600;2023-04-10T00:25:35;95627.66;;;5.68;80.46
2000;BME280;1001;48.87406500;9.59633600;2023-04-10T00:28:03;95628.00;;;5.65;79.89
2000;BME280;1001;48.87406500;9.59633600;2023-04-10T00:30:29;95624.59;;;5.64;80.51
2000;BME280;1001;48.87406500;9.59633600;2023-04-10T00:32:56;95620.78;;;5.60;80.00
2000;BME280;1001;48.87406500;9.59633600;2023-04-10T00:35:23;95620.94;;;5.59;80.47
2000;BME280;1001;48.87406500;9.59633600;2023-04-10T00:37:50;95621.94;;;5.58;81.15
2000;BME280;1001;48.87406500;9.59633600;2023-04-10T00:40:18;95618.25;;;5.67;79.94
2000;BME280;1001;48.87406500;9.59633600;2023-04-10T00:42:46;95605.56;;;5.57;80.31
2000;BME280;1001;48.87406500;9.59633600;2023-04-10T00:45:14;95607.88;;;5.67;79.00
2000;BME280;1001;48.87406500;9.59633600;2023-04-10T00:47:40;95605.22;;;5.60;80.02
2000;BME280;1001;48.87406500;9.59633600;2023-04-10T00:50:07;95602.38;;;5.55;79.43
2000;BME280;1001;48.87406500;9.59633600;2023-04-10T00:52:34;95604.78;;;5.57;79.87
2000;BME280;1001;48.87406500;9.59633600;2023-04-10T00:55:02;95605.22;;;5.60;79.93
2000;BME280;1001;48.87406500;9.59633600;2023-04-10T00:57:29;95605.03;;;5.62;78.92
2000;BME280;1001;48.87406500;9.59633600;2023-04-10T00:59:56;95605.22;;;5.60;80.04
2000;BME280;1001;48.87406500;9.59633600;2023-04-10T01:02:25;95596.00;;;5.58;79.33
2000;BME280;1001;48.87406500;9.59633600;2023-04-10T01:04:51;95601.56;;;5.55;79.15
2000;BME280;1001;48.87406500;9.59633600;2023-04-10T01:07:29;95601.16;;;5.51;79.73
2000;BME280;1001;48.87406500;9.59633600;2023-04-10T01:10:05;95590.78;;;5.51;79.62
2000;BME280;1001;48.87406500;9.59633600;2023-04-10T01:12:47;95593.97;;;5.53;79.84
2000;BME280;1001;48.87406500;9.59633600;2023-04-10T01:15:20;95606.81;;;5.61;78.68
2000;BME280;1001;48.87406500;9.59633600;2023-04-10T01:17:53;95605.84;;;5.62;78.43
2000;BME280;1001;48.87406500;9.59633600;2023-04-10T01:20:22;95606.56;;;5.56;79.42
2000;BME280;1001;48.87406500;9.59633600;2023-04-10T01:23:05;95608.94;;;5.51;78.73
2000;BME280;1001;48.87406500;9.59633600;2023-04-10T01:25:40;95609.91;;;5.50;79.14
2000;BME280;1001;48.87406500;9.59633600;2023-04-10T01:28:28;95607.88;;;5.45;78.75
2000;BME280;1001;48.87406500;9.59633600;2023-04-10T01:30:59;95606.53;;;5.35;79.71
2000;BME280;1001;48.87406500;9.59633600;2023-04-10T01:33:31;95604.69;;;5.29;79.86
2000;BME280;1001;48.87406500;9.59633600;2023-04-10T01:36:02;95606.53;;;5.35;80.03
2000;BME280;1001;48.87406500;9.59633600;2023-04-10T01:38:30;95609.34;;;5.33;79.54
2000;BME280;1001;48.87406500;9.59633600;2023-04-10T01:41:00;95603.28;;;5.26;80.65
2000;BME280;1001;48.87406500;9.59633600;2023-04-10T01:43:28;95612.00;;;5.40;79.74
2000;BME280;1001;48.87406500;9.59633600;2023-04-10T01:45:58;95608.22;;;5.42;79.46
2000;BME280;1001;48.87406500;9.59633600;2023-04-10T01:48:26;95609.78;;;5.37;80.33
2000;BME280;1001;48.87406500;9.59633600;2023-04-10T01:50:53;95618.09;;;5.32;80.26
2000;BME280;1001;48.87406500;9.59633600;2023-04-10T01:53:22;95617.22;;;5.25;81.26
2000;BME280;1001;48.87406500;9.59633600;2023-04-10T01:55:49;95616.59;;;5.23;80.40
2000;BME280;1001;48.87406500;9.59633600;2023-04-10T01:58:17;95618.47;;;5.29;80.33
2000;BME280;1001;48.87406500;9.59633600;2023-04-10T02:00:44;95618.41;;;5.23;81.02
2000;BME280;1001;48.87406500;9.59633600;2023-04-10T02:03:12;95618.19;;;5.03;81.68
2000;BME280;1001;48.87406500;9.59633600;2023-04-10T02:05:50;95617.63;;;5.08;82.18
2000;BME280;1001;48.87406500;9.59633600;2023-04-10T02:08:23;95611.44;;;5.09;82.16
2000;BME280;1001;48.87406500;9.59633600;2023-04-10T02:10:56;95613.59;;;5.05;82.37
2000;BME280;1001;48.87406500;9.59633600;2023-04-10T02:13:25;95610.22;;;5.05;82.91
2000;BME280;1001;48.87406500;9.59633600;2023-04-10T02:15:54;95609.94;;;5.00;82.35
2000;BME280;1001;48.87406500;9.59633600;2023-04-10T02:18:25;95602.00;;;5.01;82.60
2000;BME280;1001;48.87406500;9.59633600;2023-04-10T02:20:52;95598.09;;;4.91;83.77
2000;BME280;1001;48.87406500;9.59633600;2023-04-10T02:23:20;95588.06;;;4.88;84.18
2000;BME280;1001;48.87406500;9.59633600;2023-04-10T02:25:46;95589.47;;;5.05;82.28
2000;BME280;1001;48.87406500;9.59633600;2023-04-10T02:28:13;95588.84;;;5.03;83.21
2000;BME280;1001;48.87406500;9.59633600;2023-04-10T02:30:39;95582.38;;;4.92;83.21
2000;BME280;1001;48.87406500;9.59633600;2023-04-10T02:33:06;95589.91;;;4.72;83.83
2000;BME280;1001;48.87406500;9.59633600;2023-04-10T02:35:35;95590.72;;;4.73;85.14
2000;BME280;1001;48.87406500;9.59633600;2023-04-10T02:38:01;95586.84;;;4.83;84.09
2000;BME280;1001;48.87406500;9.59633600;2023-04-10T02:40:28;95585.59;;;4.79;84.17
2000;BME280;1001;48.87406500;9.59633600;2023-04-10T02:42:55;95593.03;;;4.82;83.75
2000;BME280;1001;48.87406500;9.59633600;2023-04-10T02:45:21;95594.63;;;4.69;83.85
2000;BME280;1001;48.87406500;9.59633600;2023-04-10T02:47:48;95586.34;;;4.59;85.55
2000;BME280;1001;48.87406500;9.59633600;2023-04-10T02:50:14;95585.69;;;4.57;86.22
2000;BME280;1001;48.87406500;9.59633600;2023-04-10T02:52:43;95584.38;;;4.46;86.55
2000;BME280;1001;48.87406500;9.59633600;2023-04-10T02:55:10;95584.91;;;4.42;87.13
2000;BME280;1001;48.87406500;9.59633600;2023-04-10T02:57:37;95577.78;;;4.44;86.91
2000;BME280;1001;48.87406500;9.59633600;2023-04-10T03:00:04;95573.75;;;4.41;86.98
2000;BME280;1001;48.87406500;9.59633600;2023-04-10T03:02:31;95573.22;;;4.46;87.02
2000;BME280;1001;48.87406500;9.59633600;2023-04-10T03:04:59;95578.19;;;4.47;87.36
2000;BME280;1001;48.87406500;9.59633600;2023-04-10T03:07:25;95582.59;;;4.47;87.57
2000;BME280;1001;48.87406500;9.59633600;2023-04-10T03:09:53;95581.34;;;4.43;87.46
2000;BME280;1001;48.87406500;9.59633600;2023-04-10T03:12:20;95582.59;;;4.47;87.24
2000;BME280;1001;48.87406500;9.59633600;2023-04-10T03:14:46;95584.66;;;4.37;86.68
2000;BME280;1001;48.87406500;9.59633600;2023-04-10T03:17:13;95589.81;;;4.37;87.95
2000;BME280;1001;48.87406500;9.59633600;2023-04-10T03:19:40;95582.69;;;4.39;88.09
2000;BME280;1001;48.87406500;9.59633600;2023-04-10T03:22:06;95575.81;;;4.46;88.26
2000;BME280;1001;48.87406500;9.59633600;2023-04-10T03:24:34;95580.44;;;4.50;87.97
2000;BME280;1001;48.87406500;9.59633600;2023-04-10T03:27:03;95580.91;;;4.54;87.50
2000;BME280;1001;48.87406500;9.59633600;2023-04-10T03:29:30;95592.03;;;4.54;86.64
2000;BME280;1001;48.87406500;9.59633600;2023-04-10T03:31:57;95578.13;;;4.55;87.08
2000;BME280;1001;48.87406500;9.59633600;2023-04-10T03:34:23;95584.13;;;4.56;87.68
2000;BME280;1001;48.87406500;9.59633600;2023-04-10T03:36:50;95579.63;;;4.50;87.41
2000;BME280;1001;48.87406500;9.59633600;2023-04-10T03:39:16;95577.03;;;4.50;87.72
2000;BME280;1001;48.87406500;9.59633600;2023-04-10T03:41:43;95568.03;;;4.46;87.54
2000;BME280;1001;48.87406500;9.59633600;2023-04-10T03:44:11;95575.72;;;4.54;87.33
2000;BME280;1001;48.87406500;9.59633600;2023-04-10T03:46:37;95573.28;;;4.52;87.85
2000;BME280;1001;48.87406500;9.59633600;2023-04-10T03:49:04;95570.28;;;4.49;87.14
2000;BME280;1001;48.87406500;9.59633600;2023-04-10T03:51:31;95567.69;;;4.49;88.00
2000;BME280;1001;48.87406500;9.59633600;2023-04-10T03:53:57;95561.09;;;4.46;87.83
2000;BME280;1001;48.87406500;9.59633600;2023-04-10T03:56:24;95556.09;;;4.45;88.08
2000;BME280;1001;48.87406500;9.59633600;2023-04-10T03:58:50;95561.28;;;4.45;88.05
2000;BME280;1001;48.87406500;9.59633600;2023-04-10T04:01:18;95565.38;;;4.54;88.06
2000;BME280;1001;48.87406500;9.59633600;2023-04-10T04:03:46;95568.13;;;4.52;87.18
2000;BME280;1001;48.87406500;9.59633600;2023-04-10T04:06:13;95563.94;;;4.51;86.74
2000;BME280;1001;48.87406500;9.59633600;2023-04-10T04:08:39;95572.69;;;4.50;86.37
2000;BME280;1001;48.87406500;9.59633600;2023-04-10T04:11:06;95568.66;;;4.48;87.60
2000;BME280;1001;48.87406500;9.59633600;2023-04-10T04:13:32;95573.47;;;4.36;87.86
2000;BME280;1001;48.87406500;9.59633600;2023-04-10T04:15:59;95570.34;;;4.26;88.03
2000;BME280;1001;48.87406500;9.59633600;2023-04-10T04:18:27;95566.25;;;4.32;87.61
2000;BME280;1001;48.87406500;9.59633600;2023-04-10T04:20:53;95564.81;;;4.29;88.06
2000;BME280;1001;48.87406500;9.59633600;2023-04-10T04:23:20;95571.78;;;4.29;88.30
2000;BME280;1001;48.87406500;9.59633600;2023-04-10T04:25:47;95565.38;;;4.39;87.14
2000;BME280;1001;48.87406500;9.59633600;2023-04-10T04:28:16;95558.94;;;4.35;88.75
2000;BME280;1001;48.87406500;9.59633600;2023-04-10T04:30:43;95566.72;;;4.35;87.65
2000;BME280;1001;48.87406500;9.59633600;2023-04-10T04:33:10;95571.50;;;4.24;88.13
2000;BME280;1001;48.87406500;9.59633600;2023-04-10T04:35:37;95560.00;;;4.26;87.80
2000;BME280;1001;48.87406500;9.59633600;2023-04-10T04:38:04;95570.53;;;4.39;87.25
2000;BME280;1001;48.87406500;9.59633600;2023-04-10T04:40:31;95573.13;;;4.54;86.41
2000;BME280;1001;48.87406500;9.59633600;2023-04-10T04:42:57;95564.47;;;4.47;87.06
2000;BME280;1001;48.87406500;9.59633600;2023-04-10T04:45:24;95564.91;;;4.50;86.81
2000;BME280;1001;48.87406500;9.59633600;2023-04-10T04:47:51;95561.06;;;4.61;86.18
2000;BME280;1001;48.87406500;9.59633600;2023-04-10T04:50:17;95559.97;;;4.70;86.47
2000;BME280;1001;48.87406500;9.59633600;2023-04-10T04:52:45;95565.50;;;4.81;85.17
2000;BME280;1001;48.87406500;9.59633600;2023-04-10T04:55:12;95564.34;;;4.84;85.13
2000;BME280;1001;48.87406500;9.59633600;2023-04-10T04:57:38;95550.69;;;4.75;85.81
2000;BME280;1001;48.87406500;9.59633600;2023-04-10T05:00:06;95557.09;;;4.79;85.91
2000;BME280;1001;48.87406500;9.59633600;2023-04-10T05:02:33;95561.13;;;4.82;85.66
2000;BME280;1001;48.87406500;9.59633600;2023-04-10T05:04:59;95558.34;;;4.83;85.39
2000;BME280;1001;48.87406500;9.59633600;2023-04-10T05:07:26;95556.22;;;4.87;85.48
2000;BME280;1001;48.87406500;9.59633600;2023-04-10T05:09:54;95556.78;;;5.04;83.96
2000;BME280;1001;48.87406500;9.59633600;2023-04-10T05:12:21;95555.78;;;5.05;84.34
2000;BME280;1001;48.87406500;9.59633600;2023-04-10T05:14:47;95560.00;;;5.27;83.44
2000;BME280;1001;48.87406500;9.59633600;2023-04-10T05:17:14;95555.84;;;5.32;82.38
2000;BME280;1001;48.87406500;9.59633600;2023-04-10T05:19:41;95557.97;;;5.43;82.82
2000;BME280;1001;48.87406500;9.59633600;2023-04-10T05:22:07;95561.25;;;5.52;82.29
2000;BME280;1001;48.87406500;9.59633600;2023-04-10T05:24:34;95552.94;;;5.63;82.08
2000;BME280;1001;48.87406500;9.59633600;2023-04-10T05:27:02;95558.06;;;5.78;79.96
2000;BME280;1001;48.87406500;9.59633600;2023-04-10T05:29:28;95559.38;;;5.88;79.27
2000;BME280;1001;48.87406500;9.59633600;2023-04-10T05:31:55;95559.09;;;5.83;79.68
2000;BME280;1001;48.87406500;9.59633600;2023-04-10T05:34:22;95558.72;;;6.07;77.76
2000;BME280;1001;48.87406500;9.59633600;2023-04-10T05:36:48;95560.53;;;6.13;78.23
2000;BME280;1001;48.87406500;9.59633600;2023-04-10T05:39:15;95564.59;;;6.23;77.00
2000;BME280;1001;48.87406500;9.59633600;2023-04-10T05:41:41;95565.59;;;6.22;77.32
2000;BME280;1001;48.87406500;9.59633600;2023-04-10T05:44:09;95564.66;;;6.29;76.89
2000;BME280;1001;48.87406500;9.59633600;2023-04-10T05:46:36;95562.84;;;6.30;76.88
2000;BME280;1001;48.87406500;9.59633600;2023-04-10T05:49:02;95573.59;;;6.54;74.63
2000;BME280;1001;48.87406500;9.59633600;2023-04-10T05:51:29;95564.81;;;6.55;76.45
2000;BME280;1001;48.87406500;9.59633600;2023-04-10T05:53:56;95566.03;;;6.66;75.28
2000;BME280;1001;48.87406500;9.59633600;2023-04-10T05:56:22;95567.84;;;6.65;74.83
2000;BME280;1001;48.87406500;9.59633600;2023-04-10T05:58:49;95570.88;;;6.75;74.76
2000;BME280;1001;48.87406500;9.59633600;2023-04-10T06:01:17;95572.94;;;6.86;74.06
2000;BME280;1001;48.87406500;9.59633600;2023-04-10T06:03:43;95573.16;;;6.92;74.77
2000;BME280;1001;48.87406500;9.59633600;2023-04-10T06:06:10;95566.59;;;7.02;73.22
2000;BME280;1001;48.87406500;9.59633600;2023-04-10T06:08:37;95560.25;;;7.18;73.75
2000;BME280;1001;48.87406500;9.59633600;2023-04-10T06:11:04;95565.66;;;7.36;72.96
2000;BME280;1001;48.87406500;9.59633600;2023-04-10T06:13:30;95569.13;;;7.63;73.48
2000;BME280;1001;48.87406500;9.59633600;2023-04-10T06:15:57;95569.53;;;7.86;71.17
2000;BME280;1001;48.87406500;9.59633600;2023-04-10T06:18:25;95576.97;;;8.02;68.56
2000;BME280;1001;48.87406500;9.59633600;2023-04-10T06:20:52;95576.34;;;8.13;69.96
2000;BME280;1001;48.87406500;9.59633600;2023-04-10T06:23:19;95579.34;;;8.36;68.06
2000;BME280;1001;48.87406500;9.59633600;2023-04-10T06:25:46;95580.94;;;8.31;67.66
2000;BME280;1001;48.87406500;9.59633600;2023-04-10T06:28:12;95579.34;;;8.49;67.42
2000;BME280;1001;48.87406500;9.59633600;2023-04-10T06:30:39;95569.28;;;8.59;66.13
2000;BME280;1001;48.87406500;9.59633600;2023-04-10T06:33:06;95569.69;;;8.63;66.18
2000;BME280;1001;48.87406500;9.59633600;2023-04-10T06:35:35;95565.50;;;8.49;65.56
2000;BME280;1001;48.87406500;9.59633600;2023-04-10T06:38:02;95569.28;;;8.66;65.57
2000;BME280;1001;48.87406500;9.59633600;2023-04-10T06:40:28;95577.38;;;8.96;66.67
2000;BME280;1001;48.87406500;9.59633600;2023-04-10T06:42:56;95572.28;;;9.14;63.77
2000;BME280;1001;48.87406500;9.59633600;2023-04-10T06:45:22;95570.44;;;9.27;66.39
2000;BME280;1001;48.87406500;9.59633600;2023-04-10T06:47:50;95565.41;;;9.26;62.98
2000;BME280;1001;48.87406500;9.59633600;2023-04-10T06:50:16;95559.50;;;9.43;62.70
2000;BME280;1001;48.87406500;9.59633600;2023-04-10T06:52:45;95564.00;;;9.30;62.30
2000;BME280;1001;48.87406500;9.59633600;2023-04-10T06:55:11;95566.59;;;9.61;63.17
2000;BME280;1001;48.87406500;9.59633600;2023-04-10T06:57:38;95561.44;;;9.54;62.21
2000;BME280;1001;48.87406500;9.59633600;2023-04-10T07:00:07;95565.88;;;9.47;63.72
2000;BME280;1001;48.87406500;9.59633600;2023-04-10T07:02:34;95559.66;;;9.48;61.88
2000;BME280;1001;48.87406500;9.59633600;2023-04-10T07:05:00;95565.25;;;9.52;62.09
2000;BME280;1001;48.87406500;9.59633600;2023-04-10T07:07:27;95556.66;;;9.45;61.49
2000;BME280;1001;48.87406500;9.59633600;2023-04-10T07:09:55;95563.66;;;9.51;61.62
2000;BME280;1001;48.87406500;9.59633600;2023-04-10T07:12:22;95562.41;;;9.53;61.79
2000;BME280;1001;48.87406500;9.59633600;2023-04-10T07:14:49;95565.81;;;9.61;61.57
2000;BME280;1001;48.87406500;9.59633600;2023-04-10T07:17:15;95563.00;;;9.62;59.44
2000;BME280;1001;48.87406500;9.59633600;2023-04-10T07:19:42;95564.09;;;9.73;59.63
2000;BME280;1001;48.87406500;9.59633600;2023-04-10T07:22:09;95569.94;;;9.75;59.10
2000;BME280;1001;48.87406500;9.59633600;2023-04-10T07:24:35;95567.19;;;9.63;59.06
2000;BME280;1001;48.87406500;9.59633600;2023-04-10T07:27:03;95567.16;;;9.70;59.06
2000;BME280;1001;48.87406500;9.59633600;2023-04-10T07:29:30;95569.47;;;10.09;61.78
2000;BME280;1001;48.87406500;9.59633600;2023-04-10T07:31:57;95571.94;;;10.29;60.37
2000;BME280;1001;48.87406500;9.59633600;2023-04-10T07:34:24;95574.41;;;10.23;57.50
2000;BME280;1001;48.87406500;9.59633600;2023-04-10T07:36:51;95577.25;;;10.40;57.91
2000;BME280;1001;48.87406500;9.59633600;2023-04-10T07:39:17;95579.69;;;10.60;58.41
2000;BME280;1001;48.87406500;9.59633600;2023-04-10T07:41:44;95579.47;;;10.61;57.05
2000;BME280;1001;48.87406500;9.59633600;2023-04-10T07:44:12;95580.41;;;11.03;57.65
2000;BME280;1001;48.87406500;9.59633600;2023-04-10T07:46:38;95576.69;;;11.11;59.10
2000;BME280;1001;48.87406500;9.59633600;2023-04-10T07:49:05;95589.06;;;11.33;55.70
2000;BME280;1001;48.87406500;9.59633600;2023-04-10T07:51:32;95581.72;;;11.42;54.58
2000;BME280;1001;48.87406500;9.59633600;2023-04-10T07:53:59;95581.13;;;11.28;53.60
2000;BME280;1001;48.87406500;9.59633600;2023-04-10T07:56:25;95588.81;;;11.05;54.59
2000;BME280;1001;48.87406500;9.59633600;2023-04-10T07:58:57;95581.00;;;10.87;57.76
2000;BME280;1001;48.87406500;9.59633600;2023-04-10T08:01:25;95579.13;;;10.76;55.18
2000;BME280;1001;48.87406500;9.59633600;2023-04-10T08:03:52;95582.47;;;10.83;54.47
2000;BME280;1001;48.87406500;9.59633600;2023-04-10T08:06:20;95579.94;;;11.24;53.65
2000;BME280;1001;48.87406500;9.59633600;2023-04-10T08:08:47;95572.88;;;11.25;54.97
2000;BME280;1001;48.87406500;9.59633600;2023-04-10T08:11:25;95570.97;;;11.32;55.38
2000;BME280;1001;48.87406500;9.59633600;2023-04-10T08:13:52;95568.44;;;11.55;53.75
2000;BME280;1001;48.87406500;9.59633600;2023-04-10T08:16:22;95574.38;;;11.62;54.96
2000;BME280;1001;48.87406500;9.59633600;2023-04-10T08:18:50;95575.16;;;11.81;54.88
2000;BME280;1001;48.87406500;9.59633600;2023-04-10T08:21:16;95582.59;;;11.95;53.77
2000;BME280;1001;48.87406500;9.59633600;2023-04-10T08:23:43;95577.16;;;11.97;54.17
2000;BME280;1001;48.87406500;9.59633600;2023-04-10T08:26:10;95574.28;;;11.87;52.24
2000;BME280;1001;48.87406500;9.59633600;2023-04-10T08:28:37;95567.56;;;12.02;51.95
2000;BME280;1001;48.87406500;9.59633600;2023-04-10T08:31:04;95569.63;;;12.00;53.08
2000;BME280;1001;48.87406500;9.59633600;2023-04-10T08:33:30;95575.00;;;12.17;52.48
2000;BME280;1001;48.87406500;9.59633600;2023-04-10T08:35:58;95565.56;;;12.27;51.88
2000;BME280;1001;48.87406500;9.59633600;2023-04-10T08:38:25;95569.31;;;12.20;50.69
2000;BME280;1001;48.87406500;9.59633600;2023-04-10T08:40:52;95567.94;;;12.06;51.47
2000;BME280;1001;48.87406500;9.59633600;2023-04-10T08:43:18;95575.59;;;12.42;53.99
2000;BME280;1001;48.87406500;9.59633600;2023-04-10T08:45:45;95571.69;;;12.45;50.25
2000;BME280;1001;48.87406500;9.59633600;2023-04-10T08:48:13;95565.19;;;12.82;50.63
2000;BME280;1001;48.87406500;9.59633600;2023-04-10T08:50:41;95564.41;;;12.58;48.86
2000;BME280;1001;48.87406500;9.59633600;2023-04-10T08:53:13;95569.19;;;12.73;49.04
2000;BME280;1001;48.87406500;9.59633600;2023-04-10T08:55:40;95566.22;;;12.69;49.60
2000;BME280;1001;48.87406500;9.59633600;2023-04-10T08:58:08;95558.91;;;12.71;48.98
2000;BME280;1001;48.87406500;9.59633600;2023-04-10T09:00:35;95559.25;;;12.75;48.13
2000;BME280;1001;48.87406500;9.59633600;2023-04-10T09:03:04;95550.44;;;12.81;46.52
2000;BME280;1001;48.87406500;9.59633600;2023-04-10T09:05:34;95568.19;;;12.51;46.85
2000;BME280;1001;48.87406500;9.59633600;2023-04-10T09:08:01;95560.75;;;12.48;47.67
2000;BME280;1001;48.87406500;9.59633600;2023-04-10T09:10:29;95546.41;;;12.39;48.03
2000;BME280;1001;48.87406500;9.59633600;2023-04-10T09:12:55;95562.25;;;12.32;46.49
2000;BME280;1001;48.87406500;9.59633600;2023-04-10T09:15:22;95557.13;;;12.37;47.20
2000;BME280;1001;48.87406500;9.59633600;2023-04-10T09:17:56;95548.22;;;12.26;46.61
2000;BME280;1001;48.87406500;9.59633600;2023-04-10T09:20:24;95552.78;;;12.43;49.18
2000;BME280;1001;48.87406500;9.59633600;2023-04-10T09:22:51;95560.31;;;12.51;48.32
2000;BME280;1001;48.87406500;9.59633600;2023-04-10T09:25:33;95551.19;;;12.53;47.26
2000;BME280;1001;48.87406500;9.59633600;2023-04-10T09:28:01;95553.63;;;12.94;48.37
2000;BME280;1001;48.87406500;9.59633600;2023-04-10T09:30:33;95545.84;;;12.99;47.55
2000;BME280;1001;48.87406500;9.59633600;2023-04-10T09:33:00;95541.16;;;13.02;47.01
2000;BME280;1001;48.87406500;9.59633600;2023-04-10T09:35:34;95544.56;;;13.14;46.73
2000;BME280;1001;48.87406500;9.59633600;2023-04-10T09:38:12;95543.63;;;13.31;44.82
2000;BME280;1001;48.87406500;9.59633600;2023-04-10T09:40:41;95544.13;;;13.05;46.15
2000;BME280;1001;48.87406500;9.59633600;2023-04-10T09:43:17;95534.88;;;13.03;46.19
2000;BME280;1001;48.87406500;9.59633600;2023-04-10T09:45:48;95536.50;;;12.92;44.76
2000;BME280;1001;48.87406500;9.59633600;2023-04-10T09:48:14;95539.22;;;13.20;45.83
2000;BME280;1001;48.87406500;9.59633600;2023-04-10T09:50:41;95549.41;;;12.93;44.91
2000;BME280;1001;48.87406500;9.59633600;2023-04-10T09:53:08;95537.66;;;12.96;45.41
2000;BME280;1001;48.87406500;9.59633600;2023-04-10T09:55:35;95534.47;;;13.06;46.39
2000;BME280;1001;48.87406500;9.59633600;2023-04-10T09:58:04;95532.16;;;12.97;45.65
2000;BME280;1001;48.87406500;9.59633600;2023-04-10T10:00:34;95518.41;;;13.19;46.91
2000;BME280;1001;48.87406500;9.59633600;2023-04-10T10:03:05;95512.41;;;13.35;45.96
2000;BME280;1001;48.87406500;9.59633600;2023-04-10T10:05:34;95521.22;;;13.57;46.37
2000;BME280;1001;48.87406500;9.59633600;2023-04-10T10:08:01;95515.59;;;13.65;47.11
2000;BME280;1001;48.87406500;9.59633600;2023-04-10T10:10:29;95499.00;;;13.48;46.08
2000;BME280;1001;48.87406500;9.59633600;2023-04-10T10:12:59;95504.22;;;13.93;46.51
2000;BME280;1001;48.87406500;9.59633600;2023-04-10T10:15:34;95505.31;;;14.13;47.99
2000;BME280;1001;48.87406500;9.59633600;2023-04-10T10:18:07;95498.06;;;13.87;44.33
2000;BME280;1001;48.87406500;9.59633600;2023-04-10T10:20:37;95500.22;;;13.90;46.08
2000;BME280;1001;48.87406500;9.59633600;2023-04-10T10:23:06;95501.31;;;14.11;45.82
2000;BME280;1001;48.87406500;9.59633600;2023-04-10T10:25:34;95489.44;;;14.08;47.22
2000;BME280;1001;48.87406500;9.59633600;2023-04-10T10:28:03;95484.63;;;14.00;44.42
2000;BME280;1001;48.87406500;9.59633600;2023-04-10T10:30:32;95486.91;;;13.63;44.71
2000;BME280;1001;48.87406500;9.59633600;2023-04-10T10:33:01;95468.75;;;13.79;45.03
2000;BME280;1001;48.87406500;9.59633600;2023-04-10T10:35:31;95482.75;;;14.17;47.34
2000;BME280;1001;48.87406500;9.59633600;2023-04-10T10:37:58;95468.91;;;14.05;45.27
2000;BME280;1001;48.87406500;9.59633600;2023-04-10T10:40:28;95468.00;;;14.16;45.90
2000;BME280;1001;48.87406500;9.59633600;2023-04-10T10:43:04;95469.59;;;14.34;44.05
2000;BME280;1001;48.87406500;9.59633600;2023-04-10T10:45:38;95470.84;;;14.70;45.54
2000;BME280;1001;48.87406500;9.59633600;2023-04-10T10:48:06;95470.69;;;14.76;44.64
2000;BME280;1001;48.87406500;9.59633600;2023-04-10T10:51:00;95468.34;;;14.58;42.32
2000;BME280;1001;48.87406500;9.59633600;2023-04-10T10:53:32;95460.16;;;14.55;42.72
2000;BME280;1001;48.87406500;9.59633600;2023-04-10T10:56:35;95449.59;;;14.98;44.09
2000;BME280;1001;48.87406500;9.59633600;2023-04-10T10:59:02;95461.47;;;14.79;42.80
2000;BME280;1001;48.87406500;9.59633600;2023-04-10T11:01:28;95459.66;;;14.79;44.37
2000;BME280;1001;48.87406500;9.59633600;2023-04-10T11:03:55;95448.75;;;14.71;42.84
2000;BME280;1001;48.87406500;9.59633600;2023-04-10T11:06:48;95453.34;;;15.02;42.01
2000;BME280;1001;48.87406500;9.59633600;2023-04-10T11:09:46;95444.91;;;15.05;42.88
2000;BME280;1001;48.87406500;9.59633600;2023-04-10T11:12:16;95444.66;;;15.28;42.38
2000;BME280;1001;48.87406500;9.59633600;2023-04-10T11:14:42;95430.88;;;15.21;42.13
2000;BME280;1001;48.87406500;9.59633600;2023-04-10T11:17:11;95434.13;;;15.33;42.13
2000;BME280;1001;48.87406500;9.59633600;2023-04-10T11:19:57;95438.78;;;15.21;41.42
2000;BME280;1001;48.87406500;9.59633600;2023-04-10T11:22:25;95438.31;;;15.56;43.69
2000;BME280;1001;48.87406500;9.59633600;2023-04-10T11:24:59;95432.97;;;15.78;40.76
2000;BME280;1001;48.87406500;9.59633600;2023-04-10T11:27:43;95427.78;;;15.56;41.91
2000;BME280;1001;48.87406500;9.59633600;2023-04-10T11:30:33;95416.66;;;15.49;43.44
2000;BME280;1001;48.87406500;9.59633600;2023-04-10T11:33:01;95417.94;;;15.46;41.79
2000;BME280;1001;48.87406500;9.59633600;2023-04-10T11:35:29;95421.75;;;15.60;43.13
2000;BME280;1001;48.87406500;9.59633600;2023-04-10T11:38:14;95423.13;;;15.68;41.13
2000;BME280;1001;48.87406500;9.59633600;2023-04-10T11:40:59;95424.47;;;15.71;41.49
2000;BME280;1001;48.87406500;9.59633600;2023-04-10T11:43:28;95420.41;;;15.31;42.11
2000;BME280;1001;48.87406500;9.59633600;2023-04-10T11:46:02;95426.97;;;15.29;42.75
2000;BME280;1001;48.87406500;9.59633600;2023-04-10T11:48:29;95424.78;;;15.79;44.01
2000;BME280;1001;48.87406500;9.59633600;2023-04-10T11:50:56;95430.38;;;15.83;42.67
2000;BME280;1001;48.87406500;9.59633600;2023-04-10T11:53:26;95423.13;;;16.05;44.09
2000;BME280;1001;48.87406500;9.59633600;2023-04-10T11:55:54;95416.97;;;15.89;41.06
2000;BME280;1001;48.87406500;9.59633600;2023-04-10T11:58:22;95417.38;;;15.76;37.01